• Join FlightAware (Why Join?)
  • Login
  • US Flag 
11:28AM EDT


 

Airport Tracker/Info


-or-


 

Live Flight TrackerFlight Track Log ✈ JBU51 ✈ 30-Apr-2013 ✈ KBTV - KJFK

Flight Track Log - Related Links

Times and Time Zones

All times are in EDT time to prevent confusion due to time zone crossing. See the JBU51 flight status page for this flight to view local times or setup timezone preferences in your user account.

Time Position Orientation Groundspeed Altitude Reporting Facility
EDT Latitude Longitude Course Direction KTS MPH feet Rate Location/Type
11:01AM 44.2224 -73.2319 190° South  Level FlightAware Approximate
11:02AM 44.1444 -73.2709 195° South  Level FlightAware Approximate
11:02AM 44.2839 -73.1853 196° South 266 306 9,100  Level Boston Center
11:03AM 44.0634 -73.3011 194° South  Level FlightAware Approximate
11:03AM 44.2067 -73.2192 197° South 282 325 10,000  Level Boston Center
11:04AM 43.9818 -73.3283 194° South  Level FlightAware Approximate
11:04AM 44.1208 -73.2528 196° South 313 360 12,700  Level Boston Center
11:05AM 43.9004 -73.3565 196° South  Level FlightAware Approximate
11:05AM 44.0269 -73.2947 198° South 345 397 15,600  Level Boston Center
11:06AM 43.8198 -73.3889 196° South  Level FlightAware Approximate
11:06AM 43.9308 -73.3336 196° South 360 414 17,800  Level Boston Center
11:07AM 43.7627 -73.4118 196° South  Level FlightAware Approximate
11:07AM 43.8261 -73.4014 205° Southwest 374 430 20,500  Level Boston Center
11:08AM 43.7253 -73.4714 207° Southwest 390 449 22,500 1,800 Climbing Boston Center
11:09AM 43.6311 -73.5331 205° Southwest 408 470 24,200 1,740 Climbing Boston Center
11:10AM 43.5200 -73.5969 203° Southwest 421 484 26,000 1,680 Climbing Boston Center
11:11AM 43.4008 -73.6317 192° South 435 501 27,600 960 Climbing Boston Center
11:12AM 43.2794 -73.6636 191° South 440 506 28,000 180 Climbing Boston Center
11:13AM 43.1564 -73.6953 191° South 452 520 28,000  Level Boston Center
11:14AM 43.0203 -73.7350 192° South 452 520 28,000  Level Boston Center
11:15AM 42.8969 -73.7664 191° South 452 520 28,000  Level Boston Center
11:16AM 42.7736 -73.7978 191° South 452 520 28,000  Level Boston Center
11:17AM 42.6486 -73.8092 184° South 452 520 28,000  Level Boston Center
11:18AM 42.5233 -73.8147 182° South 452 520 28,000  Level Boston Center
11:19AM 42.4003 -73.8178 181° South 452 520 28,000  Level Boston Center
11:20AM 42.2733 -73.8178 180° South 452 520 28,000  Level Boston Center
11:21AM 42.1586 -73.8236 182° South 457 526 28,000  Level Boston Center
11:22AM 42.0372 -73.8600 193° South 457 526 28,000  Level Boston Center
11:23AM 41.9181 -73.8964 193° South 457 526 28,000 -1,020 Level Boston Center
11:25AM 41.6300 -73.9878 193° South 447 514 24,500 -1,680 Descending New York Center
11:26AM 41.5208 -74.0211 193° South 431 496 22,300 -2,220 Descending New York Center
11:27AM 41.4094 -74.0600 195° South 419 482 20,100 -1,200 Descending New York Center
11:28AM 41.3081 -74.1075 199° South 414 476 20,000 -60 Descending New York Center
11:29AM 41.1933 -74.1183 184° South 407 468 20,000  Level New York Center
11:30AM 41.0806 -74.1267 183° South 407 468 20,000 -540 Level New York Center
11:31AM 41.0000 -74.1333 184° South 404 465 19,200 -660 Descending New York TRACON
11:32AM 40.9000 -74.0833 159° South 385 443 19,000 -360 Descending New York TRACON
11:33AM 40.8333 -73.9833 131° Southeast 394 453 18,600 -1,260 Descending New York TRACON
11:34AM 40.7667 -73.8667 127° Southeast 371 427 16,500 -2,100 Descending New York TRACON
11:35AM 40.7000 -73.7500 127° Southeast 382 440 14,300 -2,280 Descending New York TRACON
11:36AM 40.6333 -73.7000 150° Southeast 427 491 12,200 -1,920 Descending New York TRACON
11:37AM 40.5500 -73.6833 171° South 298 343 10,700 -1,800 Descending New York TRACON
11:38AM 40.4833 -73.7333 210° Southwest 284 327 8,600 -2,220 Descending New York TRACON
11:39AM 40.4167 -73.8000 217° Southwest 292 336 6,300 -2,160 Descending New York TRACON
11:40AM 40.4167 -73.9000 270° West 278 320 4,300 -1,620 Descending New York TRACON
11:41AM 40.4667 -73.9500 323° Northwest 255 293 3,100 -720 Descending New York TRACON
11:42AM 40.5333 -73.9667 349° North 200 230 2,800 -780 Descending New York TRACON
11:43AM 40.5667 -73.9333 37° Northeast 184 212 1,600 -720 Descending New York TRACON
11:44AM 40.6167 -73.9000 27° Northeast 176 203 1,500 -360 Descending New York TRACON
11:45AM 40.6500 -73.8667 37° Northeast 129 148 900 -360 Descending New York TRACON
11:46AM 40.6667 -73.8333 57° Northeast 123 142 800 -120 Descending New York TRACON